sensor_id;sensor_type;location;lat;lon;timestamp;temperature;humidity
73133;DHT22;61320;52.008;4.530;2022-09-17T00:00:22;13.68;84.12
73133;DHT22;61320;52.008;4.530;2022-09-17T00:02:51;13.69;84.92
73133;DHT22;61320;52.008;4.530;2022-09-17T00:05:23;13.70;85.28
73133;DHT22;61320;52.008;4.530;2022-09-17T00:07:57;13.72;84.78
73133;DHT22;61320;52.008;4.530;2022-09-17T00:10:22;13.72;85.71
73133;DHT22;61320;52.008;4.530;2022-09-17T00:12:49;13.83;84.09
73133;DHT22;61320;52.008;4.530;2022-09-17T00:15:15;13.76;84.57
73133;DHT22;61320;52.008;4.530;2022-09-17T00:17:43;13.75;83.72
73133;DHT22;61320;52.008;4.530;2022-09-17T00:20:09;13.69;84.71
73133;DHT22;61320;52.008;4.530;2022-09-17T00:22:36;13.66;83.88
73133;DHT22;61320;52.008;4.530;2022-09-17T00:25:03;13.59;84.46
73133;DHT22;61320;52.008;4.530;2022-09-17T00:27:30;13.58;85.18
73133;DHT22;61320;52.008;4.530;2022-09-17T00:29:55;13.72;85.63
73133;DHT22;61320;52.008;4.530;2022-09-17T00:32:21;13.73;84.62
73133;DHT22;61320;52.008;4.530;2022-09-17T00:38:26;13.35;84.16
73133;DHT22;61320;52.008;4.530;2022-09-17T00:40:58;13.35;84.32
73133;DHT22;61320;52.008;4.530;2022-09-17T00:43:44;13.34;84.61
73133;DHT22;61320;52.008;4.530;2022-09-17T00:48:58;13.35;84.57
73133;DHT22;61320;52.008;4.530;2022-09-17T00:51:38;13.37;85.69
73133;DHT22;61320;52.008;4.530;2022-09-17T00:54:07;13.42;85.48
73133;DHT22;61320;52.008;4.530;2022-09-17T00:56:38;13.45;85.24
73133;DHT22;61320;52.008;4.530;2022-09-17T00:59:05;13.51;85.60
73133;DHT22;61320;52.008;4.530;2022-09-17T01:01:32;13.59;85.78
73133;DHT22;61320;52.008;4.530;2022-09-17T01:03:58;13.61;85.51
73133;DHT22;61320;52.008;4.530;2022-09-17T01:12:05;13.90;85.44
73133;DHT22;61320;52.008;4.530;2022-09-17T01:14:54;13.90;85.33
73133;DHT22;61320;52.008;4.530;2022-09-17T01:17:29;13.95;85.46
73133;DHT22;61320;52.008;4.530;2022-09-17T01:23:15;13.87;85.25
73133;DHT22;61320;52.008;4.530;2022-09-17T01:28:43;13.80;84.45
73133;DHT22;61320;52.008;4.530;2022-09-17T01:34:35;13.80;84.88
73133;DHT22;61320;52.008;4.530;2022-09-17T01:37:19;13.73;84.55
73133;DHT22;61320;52.008;4.530;2022-09-17T01:40:03;13.69;84.62
73133;DHT22;61320;52.008;4.530;2022-09-17T01:42:45;13.65;84.07
73133;DHT22;61320;52.008;4.530;2022-09-17T01:45:32;13.65;84.43
73133;DHT22;61320;52.008;4.530;2022-09-17T01:48:16;13.68;85.11
73133;DHT22;61320;52.008;4.530;2022-09-17T01:50:54;13.68;85.08
73133;DHT22;61320;52.008;4.530;2022-09-17T01:53:29;13.63;83.32
73133;DHT22;61320;52.008;4.530;2022-09-17T01:55:59;13.54;83.45
73133;DHT22;61320;52.008;4.530;2022-09-17T01:58:35;13.48;83.82
73133;DHT22;61320;52.008;4.530;2022-09-17T02:01:05;13.47;84.60
73133;DHT22;61320;52.008;4.530;2022-09-17T02:03:44;13.52;85.20
73133;DHT22;61320;52.008;4.530;2022-09-17T02:06:12;13.52;84.68
73133;DHT22;61320;52.008;4.530;2022-09-17T02:08:55;13.55;83.69
73133;DHT22;61320;52.008;4.530;2022-09-17T02:11:21;13.52;82.70
73133;DHT22;61320;52.008;4.530;2022-09-17T02:14:02;13.45;84.23
73133;DHT22;61320;52.008;4.530;2022-09-17T02:16:36;13.49;84.68
73133;DHT22;61320;52.008;4.530;2022-09-17T02:19:23;13.51;84.66
73133;DHT22;61320;52.008;4.530;2022-09-17T02:21:58;13.55;84.06
73133;DHT22;61320;52.008;4.530;2022-09-17T02:24:40;13.54;84.19
73133;DHT22;61320;52.008;4.530;2022-09-17T02:27:49;13.54;83.40
73133;DHT22;61320;52.008;4.530;2022-09-17T02:30:16;13.52;84.34
73133;DHT22;61320;52.008;4.530;2022-09-17T02:32:42;13.49;84.67
73133;DHT22;61320;52.008;4.530;2022-09-17T02:35:12;13.48;83.74
73133;DHT22;61320;52.008;4.530;2022-09-17T02:37:40;13.52;84.96
73133;DHT22;61320;52.008;4.530;2022-09-17T02:40:06;13.55;84.67
73133;DHT22;61320;52.008;4.530;2022-09-17T02:43:04;13.55;83.18
73133;DHT22;61320;52.008;4.530;2022-09-17T02:50:36;13.24;84.23
73133;DHT22;61320;52.008;4.530;2022-09-17T02:56:20;13.08;83.94
73133;DHT22;61320;52.008;4.530;2022-09-17T02:58:52;13.06;84.68
73133;DHT22;61320;52.008;4.530;2022-09-17T03:01:30;13.11;85.60
73133;DHT22;61320;52.008;4.530;2022-09-17T03:04:01;13.10;84.90
73133;DHT22;61320;52.008;4.530;2022-09-17T03:06:27;13.06;84.99
73133;DHT22;61320;52.008;4.530;2022-09-17T03:09:03;13.01;85.45
73133;DHT22;61320;52.008;4.530;2022-09-17T03:11:32;12.96;85.17
73133;DHT22;61320;52.008;4.530;2022-09-17T03:13:57;12.93;84.73
73133;DHT22;61320;52.008;4.530;2022-09-17T03:16:28;12.94;85.90
73133;DHT22;61320;52.008;4.530;2022-09-17T03:18:56;12.90;85.15
73133;DHT22;61320;52.008;4.530;2022-09-17T03:21:22;12.89;85.92
73133;DHT22;61320;52.008;4.530;2022-09-17T03:23:48;12.93;86.34
73133;DHT22;61320;52.008;4.530;2022-09-17T03:26:13;13.04;86.89
73133;DHT22;61320;52.008;4.530;2022-09-17T03:28:39;13.08;86.26
73133;DHT22;61320;52.008;4.530;2022-09-17T03:31:07;13.18;86.54
73133;DHT22;61320;52.008;4.530;2022-09-17T03:33:32;13.24;85.40
73133;DHT22;61320;52.008;4.530;2022-09-17T03:36:03;13.22;85.51
73133;DHT22;61320;52.008;4.530;2022-09-17T03:38:28;13.18;85.57
73133;DHT22;61320;52.008;4.530;2022-09-17T03:41:03;13.14;84.40
73133;DHT22;61320;52.008;4.530;2022-09-17T03:43:32;13.01;84.54
73133;DHT22;61320;52.008;4.530;2022-09-17T03:45:57;12.93;85.06
73133;DHT22;61320;52.008;4.530;2022-09-17T03:48:23;13.01;86.65
73133;DHT22;61320;52.008;4.530;2022-09-17T03:50:49;13.11;86.06
73133;DHT22;61320;52.008;4.530;2022-09-17T03:53:15;13.12;86.40
73133;DHT22;61320;52.008;4.530;2022-09-17T03:55:41;13.22;86.01
73133;DHT22;61320;52.008;4.530;2022-09-17T03:58:07;13.21;85.51
73133;DHT22;61320;52.008;4.530;2022-09-17T04:00:38;13.17;84.50
73133;DHT22;61320;52.008;4.530;2022-09-17T04:03:05;13.04;85.36
73133;DHT22;61320;52.008;4.530;2022-09-17T04:05:31;13.04;84.82
73133;DHT22;61320;52.008;4.530;2022-09-17T04:07:57;13.08;85.70
73133;DHT22;61320;52.008;4.530;2022-09-17T04:10:23;13.15;86.02
73133;DHT22;61320;52.008;4.530;2022-09-17T04:12:48;13.20;84.95
73133;DHT22;61320;52.008;4.530;2022-09-17T04:15:14;13.11;84.95
73133;DHT22;61320;52.008;4.530;2022-09-17T04:17:47;13.15;85.38
73133;DHT22;61320;52.008;4.530;2022-09-17T04:20:15;13.10;84.70
73133;DHT22;61320;52.008;4.530;2022-09-17T04:22:54;13.10;85.26
73133;DHT22;61320;52.008;4.530;2022-09-17T04:25:20;13.11;85.91
73133;DHT22;61320;52.008;4.530;2022-09-17T04:27:45;13.20;85.69
73133;DHT22;61320;52.008;4.530;2022-09-17T04:30:20;13.20;85.71
73133;DHT22;61320;52.008;4.530;2022-09-17T04:32:50;13.24;85.66
73133;DHT22;61320;52.008;4.530;2022-09-17T04:35:16;13.25;85.29
73133;DHT22;61320;52.008;4.530;2022-09-17T04:37:42;13.25;85.26
73133;DHT22;61320;52.008;4.530;2022-09-17T04:40:08;13.27;83.65
73133;DHT22;61320;52.008;4.530;2022-09-17T04:42:34;13.25;83.42
73133;DHT22;61320;52.008;4.530;2022-09-17T04:44:59;13.20;83.06
73133;DHT22;61320;52.008;4.530;2022-09-17T04:47:25;13.08;84.51
73133;DHT22;61320;52.008;4.530;2022-09-17T04:49:51;13.07;83.50
73133;DHT22;61320;52.008;4.530;2022-09-17T04:52:16;13.01;78.35
73133;DHT22;61320;52.008;4.530;2022-09-17T04:54:42;12.94;83.82
73133;DHT22;61320;52.008;4.530;2022-09-17T04:57:07;12.86;84.08
73133;DHT22;61320;52.008;4.530;2022-09-17T04:59:33;12.89;84.60
73133;DHT22;61320;52.008;4.530;2022-09-17T05:01:58;12.87;84.28
73133;DHT22;61320;52.008;4.530;2022-09-17T05:04:24;12.87;83.50
73133;DHT22;61320;52.008;4.530;2022-09-17T05:06:49;12.84;84.67
73133;DHT22;61320;52.008;4.530;2022-09-17T05:09:15;12.93;82.53
73133;DHT22;61320;52.008;4.530;2022-09-17T05:11:41;12.91;83.24
73133;DHT22;61320;52.008;4.530;2022-09-17T05:14:06;12.90;84.37
73133;DHT22;61320;52.008;4.530;2022-09-17T05:16:32;12.97;85.28
73133;DHT22;61320;52.008;4.530;2022-09-17T05:18:57;13.01;85.31
73133;DHT22;61320;52.008;4.530;2022-09-17T05:21:23;13.12;85.44
73133;DHT22;61320;52.008;4.530;2022-09-17T05:23:48;13.17;85.39
73133;DHT22;61320;52.008;4.530;2022-09-17T05:26:14;13.22;85.24
73133;DHT22;61320;52.008;4.530;2022-09-17T05:28:40;13.25;85.31
73133;DHT22;61320;52.008;4.530;2022-09-17T05:31:06;13.31;85.00
73133;DHT22;61320;52.008;4.530;2022-09-17T05:33:31;13.35;85.10
73133;DHT22;61320;52.008;4.530;2022-09-17T05:35:57;13.39;85.52
73133;DHT22;61320;52.008;4.530;2022-09-17T05:38:22;13.44;85.56
73133;DHT22;61320;52.008;4.530;2022-09-17T05:40:48;13.45;85.29
73133;DHT22;61320;52.008;4.530;2022-09-17T05:43:13;13.49;85.25
73133;DHT22;61320;52.008;4.530;2022-09-17T05:45:40;13.49;85.21
73133;DHT22;61320;52.008;4.530;2022-09-17T05:48:09;13.54;85.11
73133;DHT22;61320;52.008;4.530;2022-09-17T05:50:35;13.52;85.06
73133;DHT22;61320;52.008;4.530;2022-09-17T05:53:06;13.57;84.89
73133;DHT22;61320;52.008;4.530;2022-09-17T05:55:33;13.57;85.11
73133;DHT22;61320;52.008;4.530;2022-09-17T05:58:18;13.57;84.78
73133;DHT22;61320;52.008;4.530;2022-09-17T06:00:45;13.61;84.66
73133;DHT22;61320;52.008;4.530;2022-09-17T06:03:18;13.59;84.74
73133;DHT22;61320;52.008;4.530;2022-09-17T06:05:53;13.61;84.37
73133;DHT22;61320;52.008;4.530;2022-09-17T06:08:19;13.58;84.03
73133;DHT22;61320;52.008;4.530;2022-09-17T06:10:44;13.57;84.24
73133;DHT22;61320;52.008;4.530;2022-09-17T06:13:10;13.54;84.20
73133;DHT22;61320;52.008;4.530;2022-09-17T06:15:35;13.45;83.84
73133;DHT22;61320;52.008;4.530;2022-09-17T06:18:00;13.45;84.75
73133;DHT22;61320;52.008;4.530;2022-09-17T06:20:26;13.51;84.90
73133;DHT22;61320;52.008;4.530;2022-09-17T06:22:58;13.58;84.35
73133;DHT22;61320;52.008;4.530;2022-09-17T06:25:24;13.65;84.92
73133;DHT22;61320;52.008;4.530;2022-09-17T06:27:50;13.73;85.44
73133;DHT22;61320;52.008;4.530;2022-09-17T06:30:16;13.79;84.85
73133;DHT22;61320;52.008;4.530;2022-09-17T06:32:42;13.82;85.22
73133;DHT22;61320;52.008;4.530;2022-09-17T06:35:08;13.85;84.90
73133;DHT22;61320;52.008;4.530;2022-09-17T06:37:33;13.89;85.35
73133;DHT22;61320;52.008;4.530;2022-09-17T06:40:00;13.95;84.52
73133;DHT22;61320;52.008;4.530;2022-09-17T06:42:26;13.91;84.84
73133;DHT22;61320;52.008;4.530;2022-09-17T06:44:53;13.91;83.66
73133;DHT22;61320;52.008;4.530;2022-09-17T06:47:18;13.85;83.43
73133;DHT22;61320;52.008;4.530;2022-09-17T06:49:44;13.85;83.91
73133;DHT22;61320;52.008;4.530;2022-09-17T06:55:18;13.70;83.97
73133;DHT22;61320;52.008;4.530;2022-09-17T06:58:03;13.69;83.96
73133;DHT22;61320;52.008;4.530;2022-09-17T07:04:33;13.79;84.83
73133;DHT22;61320;52.008;4.530;2022-09-17T07:07:21;13.98;85.31
73133;DHT22;61320;52.008;4.530;2022-09-17T07:09:47;14.09;85.14
73133;DHT22;61320;52.008;4.530;2022-09-17T07:12:13;14.16;84.51
73133;DHT22;61320;52.008;4.530;2022-09-17T07:14:38;13.93;84.84
73133;DHT22;61320;52.008;4.530;2022-09-17T07:17:03;13.75;84.58
73133;DHT22;61320;52.008;4.530;2022-09-17T07:19:29;13.63;85.75
73133;DHT22;61320;52.008;4.530;2022-09-17T07:21:55;13.55;85.78
73133;DHT22;61320;52.008;4.530;2022-09-17T07:24:20;13.52;85.21
73133;DHT22;61320;52.008;4.530;2022-09-17T07:26:46;13.47;85.61
73133;DHT22;61320;52.008;4.530;2022-09-17T07:29:12;13.51;86.14
73133;DHT22;61320;52.008;4.530;2022-09-17T07:31:40;13.62;86.81
73133;DHT22;61320;52.008;4.530;2022-09-17T07:34:05;13.76;86.63
73133;DHT22;61320;52.008;4.530;2022-09-17T07:36:31;13.83;86.79
73133;DHT22;61320;52.008;4.530;2022-09-17T07:38:56;13.87;85.39
73133;DHT22;61320;52.008;4.530;2022-09-17T07:41:22;13.95;86.50
73133;DHT22;61320;52.008;4.530;2022-09-17T07:43:51;14.07;86.80
73133;DHT22;61320;52.008;4.530;2022-09-17T07:46:19;14.17;86.59
73133;DHT22;61320;52.008;4.530;2022-09-17T07:48:46;14.20;85.86
73133;DHT22;61320;52.008;4.530;2022-09-17T07:51:17;14.28;85.49
73133;DHT22;61320;52.008;4.530;2022-09-17T07:53:43;14.23;84.28
73133;DHT22;61320;52.008;4.530;2022-09-17T07:56:08;14.00;84.08
73133;DHT22;61320;52.008;4.530;2022-09-17T07:58:34;13.85;84.63
73133;DHT22;61320;52.008;4.530;2022-09-17T08:01:09;13.79;85.35
73133;DHT22;61320;52.008;4.530;2022-09-17T08:03:37;13.82;83.94
73133;DHT22;61320;52.008;4.530;2022-09-17T08:08:35;13.66;84.87
73133;DHT22;61320;52.008;4.530;2022-09-17T08:11:02;13.72;85.22
73133;DHT22;61320;52.008;4.530;2022-09-17T08:13:29;13.79;85.40
73133;DHT22;61320;52.008;4.530;2022-09-17T08:16:00;13.86;85.83
73133;DHT22;61320;52.008;4.530;2022-09-17T08:18:28;13.93;84.53
73133;DHT22;61320;52.008;4.530;2022-09-17T08:20:58;13.98;85.41
73133;DHT22;61320;52.008;4.530;2022-09-17T08:23:26;14.17;85.89
73133;DHT22;61320;52.008;4.530;2022-09-17T08:25:57;14.31;85.46
73133;DHT22;61320;52.008;4.530;2022-09-17T08:28:24;14.30;83.47
73133;DHT22;61320;52.008;4.530;2022-09-17T08:30:51;14.13;84.53
73133;DHT22;61320;52.008;4.530;2022-09-17T08:33:19;13.91;84.59
73133;DHT22;61320;52.008;4.530;2022-09-17T08:35:54;13.98;85.82
73133;DHT22;61320;52.008;4.530;2022-09-17T08:38:24;13.99;85.27
73133;DHT22;61320;52.008;4.530;2022-09-17T08:43:29;13.95;84.93
73133;DHT22;61320;52.008;4.530;2022-09-17T08:45:57;13.99;86.28
73133;DHT22;61320;52.008;4.530;2022-09-17T08:48:35;14.19;86.49
73133;DHT22;61320;52.008;4.530;2022-09-17T08:51:25;14.36;86.71
73133;DHT22;61320;52.008;4.530;2022-09-17T08:54:09;14.45;86.05
73133;DHT22;61320;52.008;4.530;2022-09-17T08:56:42;14.61;86.58
73133;DHT22;61320;52.008;4.530;2022-09-17T08:59:19;14.81;86.76
73133;DHT22;61320;52.008;4.530;2022-09-17T09:02:03;14.92;85.85
73133;DHT22;61320;52.008;4.530;2022-09-17T09:04:57;14.84;83.73
73133;DHT22;61320;52.008;4.530;2022-09-17T09:07:35;14.86;82.75
73133;DHT22;61320;52.008;4.530;2022-09-17T09:12:43;14.93;84.56
73133;DHT22;61320;52.008;4.530;2022-09-17T09:17:53;15.06;81.11
73133;DHT22;61320;52.008;4.530;2022-09-17T09:20:33;14.89;83.14
73133;DHT22;61320;52.008;4.530;2022-09-17T09:23:43;14.91;85.03
73133;DHT22;61320;52.008;4.530;2022-09-17T09:26:17;15.13;85.39
73133;DHT22;61320;52.008;4.530;2022-09-17T09:33:56;15.50;83.48
73133;DHT22;61320;52.008;4.530;2022-09-17T09:36:27;15.40;83.90
73133;DHT22;61320;52.008;4.530;2022-09-17T09:38:58;15.29;83.32
73133;DHT22;61320;52.008;4.530;2022-09-17T09:44:15;15.29;82.60
73133;DHT22;61320;52.008;4.530;2022-09-17T09:53:17;15.67;82.51
73133;DHT22;61320;52.008;4.530;2022-09-17T09:58:48;15.54;82.67
73133;DHT22;61320;52.008;4.530;2022-09-17T10:01:16;15.81;82.26
73133;DHT22;61320;52.008;4.530;2022-09-17T10:03:46;16.11;82.76
73133;DHT22;61320;52.008;4.530;2022-09-17T10:06:16;16.29;82.92
73133;DHT22;61320;52.008;4.530;2022-09-17T10:11:26;16.74;81.24
73133;DHT22;61320;52.008;4.530;2022-09-17T10:13:52;16.43;79.66
73133;DHT22;61320;52.008;4.530;2022-09-17T10:16:40;16.12;81.08
73133;DHT22;61320;52.008;4.530;2022-09-17T10:19:18;16.11;82.25
73133;DHT22;61320;52.008;4.530;2022-09-17T10:21:49;16.08;82.74
73133;DHT22;61320;52.008;4.530;2022-09-17T10:24:24;15.97;79.43
73133;DHT22;61320;52.008;4.530;2022-09-17T10:26:59;15.68;78.47
73133;DHT22;61320;52.008;4.530;2022-09-17T10:29:26;15.47;80.66
73133;DHT22;61320;52.008;4.530;2022-09-17T10:31:54;15.36;80.72
73133;DHT22;61320;52.008;4.530;2022-09-17T10:34:26;15.39;78.77
73133;DHT22;61320;52.008;4.530;2022-09-17T10:36:53;15.54;82.18
73133;DHT22;61320;52.008;4.530;2022-09-17T10:42:05;15.85;83.40
73133;DHT22;61320;52.008;4.530;2022-09-17T10:44:38;15.97;80.94
73133;DHT22;61320;52.008;4.530;2022-09-17T10:47:21;16.08;81.80
73133;DHT22;61320;52.008;4.530;2022-09-17T10:49:57;16.16;81.27
73133;DHT22;61320;52.008;4.530;2022-09-17T10:52:28;16.36;81.56
73133;DHT22;61320;52.008;4.530;2022-09-17T10:55:07;16.28;81.03
73133;DHT22;61320;52.008;4.530;2022-09-17T11:00:23;16.05;78.42
73133;DHT22;61320;52.008;4.530;2022-09-17T11:08:40;16.06;79.00
73133;DHT22;61320;52.008;4.530;2022-09-17T11:11:22;16.21;75.16
73133;DHT22;61320;52.008;4.530;2022-09-17T11:19:23;16.30;73.19
73133;DHT22;61320;52.008;4.530;2022-09-17T11:28:09;16.46;72.29
73133;DHT22;61320;52.008;4.530;2022-09-17T11:39:47;16.29;75.11
73133;DHT22;61320;52.008;4.530;2022-09-17T11:42:20;16.30;70.64
73133;DHT22;61320;52.008;4.530;2022-09-17T11:44:55;16.33;77.11
73133;DHT22;61320;52.008;4.530;2022-09-17T11:47:39;16.28;73.99
73133;DHT22;61320;52.008;4.530;2022-09-17T11:50:23;16.16;69.76
73133;DHT22;61320;52.008;4.530;2022-09-17T11:53:08;16.06;73.67
73133;DHT22;61320;52.008;4.530;2022-09-17T11:55:46;15.91;73.35
73133;DHT22;61320;52.008;4.530;2022-09-17T11:58:35;15.81;74.81
73133;DHT22;61320;52.008;4.530;2022-09-17T12:01:12;15.97;77.17
73133;DHT22;61320;52.008;4.530;2022-09-17T12:04:00;16.11;78.44
73133;DHT22;61320;52.008;4.530;2022-09-17T12:06:38;16.16;72.65
73133;DHT22;61320;52.008;4.530;2022-09-17T12:09:25;16.12;77.17
73133;DHT22;61320;52.008;4.530;2022-09-17T12:12:20;16.29;76.83
73133;DHT22;61320;52.008;4.530;2022-09-17T12:14:57;16.39;66.53
73133;DHT22;61320;52.008;4.530;2022-09-17T12:17:36;16.49;69.97
73133;DHT22;61320;52.008;4.530;2022-09-17T12:20:23;16.52;69.32
73133;DHT22;61320;52.008;4.530;2022-09-17T12:22:53;16.55;63.02
73133;DHT22;61320;52.008;4.530;2022-09-17T12:25:36;16.66;68.61
73133;DHT22;61320;52.008;4.530;2022-09-17T12:28:15;16.72;68.82
73133;DHT22;61320;52.008;4.530;2022-09-17T12:30:54;16.87;61.11
73133;DHT22;61320;52.008;4.530;2022-09-17T12:33:49;17.04;60.14
73133;DHT22;61320;52.008;4.530;2022-09-17T12:42:11;17.41;67.21
73133;DHT22;61320;52.008;4.530;2022-09-17T12:48:01;17.55;70.96
73133;DHT22;61320;52.008;4.530;2022-09-17T12:53:39;17.71;69.17
73133;DHT22;61320;52.008;4.530;2022-09-17T12:59:15;17.62;62.31
73133;DHT22;61320;52.008;4.530;2022-09-17T13:02:00;17.65;63.63
73133;DHT22;61320;52.008;4.530;2022-09-17T13:19:10;17.59;65.86
73133;DHT22;61320;52.008;4.530;2022-09-17T13:21:51;17.63;68.39
73133;DHT22;61320;52.008;4.530;2022-09-17T13:24:21;17.72;59.39
73133;DHT22;61320;52.008;4.530;2022-09-17T13:26:53;17.80;61.25
73133;DHT22;61320;52.008;4.530;2022-09-17T13:37:53;17.92;62.21
73133;DHT22;61320;52.008;4.530;2022-09-17T13:48:30;18.57;63.71
73133;DHT22;61320;52.008;4.530;2022-09-17T13:53:59;18.73;60.44
73133;DHT22;61320;52.008;4.530;2022-09-17T13:56:38;18.71;71.46
73133;DHT22;61320;52.008;4.530;2022-09-17T13:59:17;18.61;73.50
73133;DHT22;61320;52.008;4.530;2022-09-17T14:10:26;17.97;68.16
73133;DHT22;61320;52.008;4.530;2022-09-17T14:12:51;18.09;69.46
73133;DHT22;61320;52.008;4.530;2022-09-17T14:15:52;18.18;64.25
73133;DHT22;61320;52.008;4.530;2022-09-17T14:23:51;18.30;65.40
73133;DHT22;61320;52.008;4.530;2022-09-17T14:26:33;18.24;58.56
73133;DHT22;61320;52.008;4.530;2022-09-17T14:29:09;18.13;63.25
73133;DHT22;61320;52.008;4.530;2022-09-17T14:31:37;18.11;59.74
73133;DHT22;61320;52.008;4.530;2022-09-17T14:34:18;18.01;62.05
73133;DHT22;61320;52.008;4.530;2022-09-17T14:36:49;17.99;59.53
73133;DHT22;61320;52.008;4.530;2022-09-17T14:39:25;17.90;57.20
73133;DHT22;61320;52.008;4.530;2022-09-17T14:41:55;17.94;62.76
73133;DHT22;61320;52.008;4.530;2022-09-17T14:44:24;18.06;57.92
73133;DHT22;61320;52.008;4.530;2022-09-17T14:47:02;18.04;56.34
73133;DHT22;61320;52.008;4.530;2022-09-17T14:49:35;18.01;53.89
73133;DHT22;61320;52.008;4.530;2022-09-17T14:52:28;17.96;61.23
73133;DHT22;61320;52.008;4.530;2022-09-17T14:57:50;17.82;56.24
73133;DHT22;61320;52.008;4.530;2022-09-17T15:00:35;17.80;58.54
73133;DHT22;61320;52.008;4.530;2022-09-17T15:03:04;17.85;60.71
73133;DHT22;61320;52.008;4.530;2022-09-17T15:05:35;17.80;65.06
73133;DHT22;61320;52.008;4.530;2022-09-17T15:08:22;17.56;63.02
73133;DHT22;61320;52.008;4.530;2022-09-17T15:11:00;17.28;63.41
73133;DHT22;61320;52.008;4.530;2022-09-17T15:13:50;17.01;60.41
73133;DHT22;61320;52.008;4.530;2022-09-17T15:18:59;16.70;65.88
73133;DHT22;61320;52.008;4.530;2022-09-17T15:21:40;16.55;64.98
73133;DHT22;61320;52.008;4.530;2022-09-17T15:24:49;16.51;64.57
73133;DHT22;61320;52.008;4.530;2022-09-17T15:27:31;16.48;68.45
73133;DHT22;61320;52.008;4.530;2022-09-17T15:30:13;16.45;64.38
73133;DHT22;61320;52.008;4.530;2022-09-17T15:32:57;16.41;66.27
73133;DHT22;61320;52.008;4.530;2022-09-17T15:35:34;16.46;65.85
73133;DHT22;61320;52.008;4.530;2022-09-17T15:38:20;16.51;67.22
73133;DHT22;61320;52.008;4.530;2022-09-17T15:40:51;16.53;68.69
73133;DHT22;61320;52.008;4.530;2022-09-17T15:43:33;16.60;65.88
73133;DHT22;61320;52.008;4.530;2022-09-17T15:46:30;16.63;69.05
73133;DHT22;61320;52.008;4.530;2022-09-17T15:49:01;16.64;69.82
73133;DHT22;61320;52.008;4.530;2022-09-17T15:51:32;16.60;62.39
73133;DHT22;61320;52.008;4.530;2022-09-17T15:54:01;16.55;65.05
73133;DHT22;61320;52.008;4.530;2022-09-17T15:56:35;16.51;68.71
73133;DHT22;61320;52.008;4.530;2022-09-17T15:59:04;16.46;63.33
73133;DHT22;61320;52.008;4.530;2022-09-17T16:04:19;16.02;71.40
73133;DHT22;61320;52.008;4.530;2022-09-17T16:09:37;14.95;75.95
73133;DHT22;61320;52.008;4.530;2022-09-17T16:12:03;14.72;78.25
73133;DHT22;61320;52.008;4.530;2022-09-17T16:14:31;14.65;79.42
73133;DHT22;61320;52.008;4.530;2022-09-17T16:16:57;14.65;80.24
73133;DHT22;61320;52.008;4.530;2022-09-17T16:19:24;14.67;79.73
73133;DHT22;61320;52.008;4.530;2022-09-17T16:21:50;14.69;80.00
73133;DHT22;61320;52.008;4.530;2022-09-17T16:24:15;14.67;79.61
73133;DHT22;61320;52.008;4.530;2022-09-17T16:26:41;14.72;79.48
73133;DHT22;61320;52.008;4.530;2022-09-17T16:29:15;14.86;79.59
73133;DHT22;61320;52.008;4.530;2022-09-17T16:31:42;14.88;77.66
73133;DHT22;61320;52.008;4.530;2022-09-17T16:34:09;14.86;79.31
73133;DHT22;61320;52.008;4.530;2022-09-17T16:36:34;14.91;79.91
73133;DHT22;61320;52.008;4.530;2022-09-17T16:39:00;14.93;78.27
73133;DHT22;61320;52.008;4.530;2022-09-17T16:41:26;14.96;79.22
73133;DHT22;61320;52.008;4.530;2022-09-17T16:43:51;15.02;80.57
73133;DHT22;61320;52.008;4.530;2022-09-17T16:46:17;15.09;77.89
73133;DHT22;61320;52.008;4.530;2022-09-17T16:48:42;15.05;80.43
73133;DHT22;61320;52.008;4.530;2022-09-17T16:51:11;14.85;80.00
73133;DHT22;61320;52.008;4.530;2022-09-17T16:53:38;14.58;81.82
73133;DHT22;61320;52.008;4.530;2022-09-17T16:56:08;14.52;83.04
73133;DHT22;61320;52.008;4.530;2022-09-17T16:58:34;14.45;82.59
73133;DHT22;61320;52.008;4.530;2022-09-17T17:01:11;14.44;83.86
73133;DHT22;61320;52.008;4.530;2022-09-17T17:03:37;14.47;83.97
73133;DHT22;61320;52.008;4.530;2022-09-17T17:06:03;14.54;83.55
73133;DHT22;61320;52.008;4.530;2022-09-17T17:08:32;14.42;83.71
73133;DHT22;61320;52.008;4.530;2022-09-17T17:10:58;14.21;83.84
73133;DHT22;61320;52.008;4.530;2022-09-17T17:13:24;14.06;85.28
73133;DHT22;61320;52.008;4.530;2022-09-17T17:16:03;13.99;85.32
73133;DHT22;61320;52.008;4.530;2022-09-17T17:18:37;13.98;86.08
73133;DHT22;61320;52.008;4.530;2022-09-17T17:21:13;14.00;86.20
73133;DHT22;61320;52.008;4.530;2022-09-17T17:23:41;14.06;86.44
73133;DHT22;61320;52.008;4.530;2022-09-17T17:26:13;14.14;86.33
73133;DHT22;61320;52.008;4.530;2022-09-17T17:28:39;14.14;85.39
73133;DHT22;61320;52.008;4.530;2022-09-17T17:31:05;14.10;85.76
73133;DHT22;61320;52.008;4.530;2022-09-17T17:33:33;14.16;86.12
73133;DHT22;61320;52.008;4.530;2022-09-17T17:36:01;14.17;86.08
73133;DHT22;61320;52.008;4.530;2022-09-17T17:38:27;14.23;85.89
73133;DHT22;61320;52.008;4.530;2022-09-17T17:41:04;14.24;85.85
73133;DHT22;61320;52.008;4.530;2022-09-17T17:43:30;14.27;86.18
73133;DHT22;61320;52.008;4.530;2022-09-17T17:45:56;14.30;85.92
73133;DHT22;61320;52.008;4.530;2022-09-17T17:48:21;14.26;85.58
73133;DHT22;61320;52.008;4.530;2022-09-17T17:50:47;14.33;86.18
73133;DHT22;61320;52.008;4.530;2022-09-17T17:53:12;14.38;86.16
73133;DHT22;61320;52.008;4.530;2022-09-17T17:55:38;14.40;86.16
73133;DHT22;61320;52.008;4.530;2022-09-17T17:58:03;14.41;85.79
73133;DHT22;61320;52.008;4.530;2022-09-17T18:00:32;14.42;86.36
73133;DHT22;61320;52.008;4.530;2022-09-17T18:02:59;14.48;85.68
73133;DHT22;61320;52.008;4.530;2022-09-17T18:05:27;14.42;85.88
73133;DHT22;61320;52.008;4.530;2022-09-17T18:07:53;14.45;83.45
73133;DHT22;61320;52.008;4.530;2022-09-17T18:10:18;14.20;83.77
73133;DHT22;61320;52.008;4.530;2022-09-17T18:12:47;14.00;85.31
73133;DHT22;61320;52.008;4.530;2022-09-17T18:15:17;14.06;85.07
73133;DHT22;61320;52.008;4.530;2022-09-17T18:17:43;14.00;85.75
73133;DHT22;61320;52.008;4.530;2022-09-17T18:20:19;14.07;85.73
73133;DHT22;61320;52.008;4.530;2022-09-17T18:22:46;14.07;85.49
73133;DHT22;61320;52.008;4.530;2022-09-17T18:25:11;13.93;84.51
73133;DHT22;61320;52.008;4.530;2022-09-17T18:27:37;13.87;85.14
73133;DHT22;61320;52.008;4.530;2022-09-17T18:30:06;13.89;85.55
73133;DHT22;61320;52.008;4.530;2022-09-17T18:32:35;13.93;86.07
73133;DHT22;61320;52.008;4.530;2022-09-17T18:35:00;14.00;86.00
73133;DHT22;61320;52.008;4.530;2022-09-17T18:37:27;14.03;86.24
73133;DHT22;61320;52.008;4.530;2022-09-17T18:40:01;14.14;85.75
73133;DHT22;61320;52.008;4.530;2022-09-17T18:42:28;13.99;85.09
73133;DHT22;61320;52.008;4.530;2022-09-17T18:44:53;13.80;85.72
73133;DHT22;61320;52.008;4.530;2022-09-17T18:47:19;13.82;86.57
73133;DHT22;61320;52.008;4.530;2022-09-17T18:49:44;13.85;86.16